sensor_id;sensor_type;location;lat;lon;timestamp;pressure;altitude;pressure_sealevel;temperature;humidity
19624;BME280;9959;49.798;9.928;2023-02-04T00:00:16;100762.72;;;6.37;77.96
19624;BME280;9959;49.798;9.928;2023-02-04T00:02:44;100760.56;;;6.41;77.63
19624;BME280;9959;49.798;9.928;2023-02-04T00:05:17;100780.38;;;6.30;78.46
19624;BME280;9959;49.798;9.928;2023-02-04T00:07:45;100765.50;;;6.28;78.32
19624;BME280;9959;49.798;9.928;2023-02-04T00:10:12;100775.75;;;6.15;78.75
19624;BME280;9959;49.798;9.928;2023-02-04T00:12:39;100762.97;;;6.26;77.88
19624;BME280;9959;49.798;9.928;2023-02-04T00:15:06;100767.59;;;6.16;78.27
19624;BME280;9959;49.798;9.928;2023-02-04T00:17:36;100766.00;;;6.31;76.41
19624;BME280;9959;49.798;9.928;2023-02-04T00:20:04;100779.53;;;6.30;75.97
19624;BME280;9959;49.798;9.928;2023-02-04T00:22:30;100775.44;;;6.18;75.44
19624;BME280;9959;49.798;9.928;2023-02-04T00:24:57;100776.97;;;6.20;75.01
19624;BME280;9959;49.798;9.928;2023-02-04T00:27:24;100775.25;;;6.37;73.71
19624;BME280;9959;49.798;9.928;2023-02-04T00:29:51;100783.84;;;6.23;74.32
19624;BME280;9959;49.798;9.928;2023-02-04T00:32:17;100767.97;;;6.21;74.21
19624;BME280;9959;49.798;9.928;2023-02-04T00:34:44;100763.00;;;6.34;72.12
19624;BME280;9959;49.798;9.928;2023-02-04T00:37:11;100763.69;;;6.10;73.46
19624;BME280;9959;49.798;9.928;2023-02-04T00:39:38;100768.19;;;6.10;74.61
19624;BME280;9959;49.798;9.928;2023-02-04T00:42:05;100754.28;;;6.06;73.96
19624;BME280;9959;49.798;9.928;2023-02-04T00:44:32;100753.59;;;6.22;71.17
19624;BME280;9959;49.798;9.928;2023-02-04T00:47:06;100751.84;;;6.13;71.80
19624;BME280;9959;49.798;9.928;2023-02-04T00:49:33;100777.34;;;6.25;69.38
19624;BME280;9959;49.798;9.928;2023-02-04T00:52:01;100777.78;;;6.38;67.50
19624;BME280;9959;49.798;9.928;2023-02-04T00:54:28;100773.09;;;6.40;66.92
19624;BME280;9959;49.798;9.928;2023-02-04T00:56:55;100777.78;;;6.38;66.78
19624;BME280;9959;49.798;9.928;2023-02-04T00:59:22;100790.78;;;6.33;66.69
19624;BME280;9959;49.798;9.928;2023-02-04T01:01:49;100796.81;;;6.35;66.89
19624;BME280;9959;49.798;9.928;2023-02-04T01:04:17;100799.75;;;6.06;68.58
19624;BME280;9959;49.798;9.928;2023-02-04T01:06:44;100808.94;;;6.04;68.42
19624;BME280;9959;49.798;9.928;2023-02-04T01:09:10;100825.44;;;6.17;68.07
19624;BME280;9959;49.798;9.928;2023-02-04T01:11:37;100828.44;;;6.14;68.42
19624;BME280;9959;49.798;9.928;2023-02-04T01:14:04;100826.53;;;6.24;68.31
19624;BME280;9959;49.798;9.928;2023-02-04T01:16:33;100834.84;;;6.21;68.67
19624;BME280;9959;49.798;9.928;2023-02-04T01:18:59;100841.94;;;6.30;68.69
19624;BME280;9959;49.798;9.928;2023-02-04T01:21:26;100843.47;;;6.33;69.33
19624;BME280;9959;49.798;9.928;2023-02-04T01:23:53;100851.03;;;6.37;69.99
19624;BME280;9959;49.798;9.928;2023-02-04T01:26:20;100849.22;;;6.20;71.61
19624;BME280;9959;49.798;9.928;2023-02-04T01:28:50;100855.78;;;6.08;73.36
19624;BME280;9959;49.798;9.928;2023-02-04T01:31:16;100855.59;;;6.01;74.72
19624;BME280;9959;49.798;9.928;2023-02-04T01:33:46;100863.06;;;5.98;75.49
19624;BME280;9959;49.798;9.928;2023-02-04T01:36:12;100865.78;;;5.88;76.84
19624;BME280;9959;49.798;9.928;2023-02-04T01:38:39;100867.91;;;5.85;77.48
19624;BME280;9959;49.798;9.928;2023-02-04T01:41:07;100878.22;;;5.79;77.69
19624;BME280;9959;49.798;9.928;2023-02-04T01:43:34;100868.44;;;5.70;78.42
19624;BME280;9959;49.798;9.928;2023-02-04T01:46:01;100877.44;;;5.69;78.27
19624;BME280;9959;49.798;9.928;2023-02-04T01:48:28;100879.19;;;5.61;79.11
19624;BME280;9959;49.798;9.928;2023-02-04T01:51:02;100890.19;;;5.75;77.81
19624;BME280;9959;49.798;9.928;2023-02-04T01:53:31;100876.66;;;5.77;77.66
19624;BME280;9959;49.798;9.928;2023-02-04T01:55:58;100884.53;;;5.78;77.59
19624;BME280;9959;49.798;9.928;2023-02-04T01:58:30;100883.56;;;5.79;77.38
19624;BME280;9959;49.798;9.928;2023-02-04T02:00:57;100883.84;;;5.76;77.63
19624;BME280;9959;49.798;9.928;2023-02-04T02:03:24;100879.50;;;5.75;77.41
19624;BME280;9959;49.798;9.928;2023-02-04T02:05:55;100879.75;;;5.82;77.16
19624;BME280;9959;49.798;9.928;2023-02-04T02:08:25;100869.88;;;5.83;77.19
19624;BME280;9959;49.798;9.928;2023-02-04T02:10:52;100886.63;;;5.85;77.31
19624;BME280;9959;49.798;9.928;2023-02-04T02:13:22;100885.31;;;5.71;77.94
19624;BME280;9959;49.798;9.928;2023-02-04T02:15:49;100880.03;;;5.79;77.62
19624;BME280;9959;49.798;9.928;2023-02-04T02:18:16;100887.84;;;5.72;78.13
19624;BME280;9959;49.798;9.928;2023-02-04T02:20:43;100882.16;;;5.75;78.39
19624;BME280;9959;49.798;9.928;2023-02-04T02:25:54;100886.22;;;5.79;77.69
19624;BME280;9959;49.798;9.928;2023-02-04T02:28:21;100895.94;;;5.81;77.72
19624;BME280;9959;49.798;9.928;2023-02-04T02:30:50;100898.31;;;5.84;77.04
19624;BME280;9959;49.798;9.928;2023-02-04T02:33:19;100896.47;;;5.84;76.80
19624;BME280;9959;49.798;9.928;2023-02-04T02:35:47;100908.84;;;5.85;76.59
19624;BME280;9959;49.798;9.928;2023-02-04T02:38:15;100912.53;;;5.84;76.88
19624;BME280;9959;49.798;9.928;2023-02-04T02:40:43;100914.34;;;5.93;75.92
19624;BME280;9959;49.798;9.928;2023-02-04T02:43:14;100914.47;;;5.92;75.95
19624;BME280;9959;49.798;9.928;2023-02-04T02:45:42;100912.50;;;5.94;75.86
19624;BME280;9959;49.798;9.928;2023-02-04T02:48:10;100917.03;;;5.84;76.82
19624;BME280;9959;49.798;9.928;2023-02-04T02:50:37;100923.75;;;5.88;75.92
19624;BME280;9959;49.798;9.928;2023-02-04T02:53:09;100923.50;;;5.81;76.52
19624;BME280;9959;49.798;9.928;2023-02-04T02:55:37;100929.13;;;5.88;75.60
19624;BME280;9959;49.798;9.928;2023-02-04T02:58:09;100934.19;;;5.91;75.53
19624;BME280;9959;49.798;9.928;2023-02-04T03:00:38;100947.28;;;5.94;74.70
19624;BME280;9959;49.798;9.928;2023-02-04T03:03:08;100937.56;;;5.93;74.14
19624;BME280;9959;49.798;9.928;2023-02-04T03:08:13;100957.56;;;5.89;74.73
19624;BME280;9959;49.798;9.928;2023-02-04T03:10:41;100962.03;;;5.98;74.20
19624;BME280;9959;49.798;9.928;2023-02-04T03:13:09;100970.34;;;5.95;74.21
19624;BME280;9959;49.798;9.928;2023-02-04T03:15:37;100957.38;;;6.00;74.37
19624;BME280;9959;49.798;9.928;2023-02-04T03:18:04;100968.81;;;5.92;73.25
19624;BME280;9959;49.798;9.928;2023-02-04T03:20:32;100949.66;;;5.97;73.19
19624;BME280;9959;49.798;9.928;2023-02-04T03:22:59;100955.84;;;5.88;73.67
19624;BME280;9959;49.798;9.928;2023-02-04T03:25:26;100958.97;;;5.83;72.88
19624;BME280;9959;49.798;9.928;2023-02-04T03:27:56;100969.66;;;5.83;73.27
19624;BME280;9959;49.798;9.928;2023-02-04T03:30:24;100970.22;;;5.87;71.87
19624;BME280;9959;49.798;9.928;2023-02-04T03:32:52;100969.22;;;5.88;71.31
19624;BME280;9959;49.798;9.928;2023-02-04T03:35:19;100965.59;;;5.89;71.19
19624;BME280;9959;49.798;9.928;2023-02-04T03:37:46;100983.44;;;5.88;71.24
19624;BME280;9959;49.798;9.928;2023-02-04T03:40:16;100980.66;;;5.90;71.35
19624;BME280;9959;49.798;9.928;2023-02-04T03:42:48;100992.59;;;5.86;72.13
19624;BME280;9959;49.798;9.928;2023-02-04T03:45:14;100987.94;;;5.88;72.20
19624;BME280;9959;49.798;9.928;2023-02-04T03:47:41;100992.50;;;5.77;72.90
19624;BME280;9959;49.798;9.928;2023-02-04T03:50:08;101001.50;;;5.76;72.62
19624;BME280;9959;49.798;9.928;2023-02-04T03:52:38;101004.03;;;5.78;72.49
19624;BME280;9959;49.798;9.928;2023-02-04T03:55:05;100997.84;;;5.77;72.42
19624;BME280;9959;49.798;9.928;2023-02-04T03:57:33;101001.13;;;5.71;73.15
19624;BME280;9959;49.798;9.928;2023-02-04T03:59:59;101010.50;;;5.75;72.38
19624;BME280;9959;49.798;9.928;2023-02-04T04:02:26;101006.56;;;5.79;72.06
19624;BME280;9959;49.798;9.928;2023-02-04T04:04:53;101010.69;;;5.74;72.62
19624;BME280;9959;49.798;9.928;2023-02-04T04:07:20;101008.44;;;5.69;72.73
19624;BME280;9959;49.798;9.928;2023-02-04T04:09:46;101015.50;;;5.70;72.51
19624;BME280;9959;49.798;9.928;2023-02-04T04:12:13;101018.44;;;5.67;72.88
19624;BME280;9959;49.798;9.928;2023-02-04T04:14:41;101027.31;;;5.68;72.09
19624;BME280;9959;49.798;9.928;2023-02-04T04:17:07;101038.72;;;5.70;70.87
19624;BME280;9959;49.798;9.928;2023-02-04T04:19:37;101040.13;;;5.64;72.03
19624;BME280;9959;49.798;9.928;2023-02-04T04:22:10;101049.97;;;5.64;71.80
19624;BME280;9959;49.798;9.928;2023-02-04T04:24:37;101054.47;;;5.63;71.98
19624;BME280;9959;49.798;9.928;2023-02-04T04:27:04;101065.19;;;5.63;71.23
19624;BME280;9959;49.798;9.928;2023-02-04T04:29:30;101072.22;;;5.64;70.61
19624;BME280;9959;49.798;9.928;2023-02-04T04:31:57;101073.63;;;5.59;71.66
19624;BME280;9959;49.798;9.928;2023-02-04T04:34:24;101077.84;;;5.61;71.31
19624;BME280;9959;49.798;9.928;2023-02-04T04:36:51;101080.38;;;5.63;70.97
19624;BME280;9959;49.798;9.928;2023-02-04T04:39:17;101075.31;;;5.60;71.59
19624;BME280;9959;49.798;9.928;2023-02-04T04:41:44;101081.09;;;5.55;71.51
19624;BME280;9959;49.798;9.928;2023-02-04T04:44:11;101083.25;;;5.42;72.13
19624;BME280;9959;49.798;9.928;2023-02-04T04:49:08;101080.56;;;5.32;73.05
19624;BME280;9959;49.798;9.928;2023-02-04T04:51:34;101083.25;;;5.32;72.67
19624;BME280;9959;49.798;9.928;2023-02-04T04:54:01;101072.97;;;5.28;72.46
19624;BME280;9959;49.798;9.928;2023-02-04T04:56:28;101083.13;;;5.15;73.45
19624;BME280;9959;49.798;9.928;2023-02-04T04:58:54;101084.94;;;5.04;74.13
19624;BME280;9959;49.798;9.928;2023-02-04T05:01:21;101080.16;;;4.98;74.53
19624;BME280;9959;49.798;9.928;2023-02-04T05:03:48;101075.41;;;5.12;73.68
19624;BME280;9959;49.798;9.928;2023-02-04T05:06:18;101075.25;;;4.94;74.00
19624;BME280;9959;49.798;9.928;2023-02-04T05:08:53;101073.41;;;4.94;74.02
19624;BME280;9959;49.798;9.928;2023-02-04T05:11:20;101075.41;;;4.92;74.05
19624;BME280;9959;49.798;9.928;2023-02-04T05:13:47;101075.66;;;4.80;74.47
19624;BME280;9959;49.798;9.928;2023-02-04T05:16:14;101083.97;;;4.86;74.73
19624;BME280;9959;49.798;9.928;2023-02-04T05:18:41;101082.41;;;4.74;74.79
19624;BME280;9959;49.798;9.928;2023-02-04T05:21:08;101080.72;;;4.63;75.83
19624;BME280;9959;49.798;9.928;2023-02-04T05:23:35;101079.03;;;4.72;75.23
19624;BME280;9959;49.798;9.928;2023-02-04T05:26:02;101093.63;;;4.68;75.17
19624;BME280;9959;49.798;9.928;2023-02-04T05:28:28;101093.63;;;4.58;75.78
19624;BME280;9959;49.798;9.928;2023-02-04T05:30:55;101102.06;;;4.54;75.94
19624;BME280;9959;49.798;9.928;2023-02-04T05:33:23;101112.19;;;4.60;75.98
19624;BME280;9959;49.798;9.928;2023-02-04T05:35:50;101119.06;;;4.62;75.33
19624;BME280;9959;49.798;9.928;2023-02-04T05:38:17;101127.34;;;4.69;75.05
19624;BME280;9959;49.798;9.928;2023-02-04T05:40:44;101145.34;;;4.67;75.79
19624;BME280;9959;49.798;9.928;2023-02-04T05:43:11;101144.78;;;4.73;75.44
19624;BME280;9959;49.798;9.928;2023-02-04T05:45:38;101145.94;;;4.80;75.07
19624;BME280;9959;49.798;9.928;2023-02-04T05:48:08;101149.31;;;4.82;74.92
19624;BME280;9959;49.798;9.928;2023-02-04T05:50:35;101140.06;;;4.86;75.02
19624;BME280;9959;49.798;9.928;2023-02-04T05:53:04;101140.16;;;4.75;75.58
19624;BME280;9959;49.798;9.928;2023-02-04T05:55:31;101149.59;;;4.79;75.50
19624;BME280;9959;49.798;9.928;2023-02-04T05:58:00;101151.81;;;4.74;75.43
19624;BME280;9959;49.798;9.928;2023-02-04T06:03:07;101158.56;;;4.78;75.74
19624;BME280;9959;49.798;9.928;2023-02-04T06:05:34;101156.34;;;4.83;75.34
19624;BME280;9959;49.798;9.928;2023-02-04T06:08:03;101169.28;;;4.97;74.45
19624;BME280;9959;49.798;9.928;2023-02-04T06:10:30;101174.50;;;4.89;74.99
19624;BME280;9959;49.798;9.928;2023-02-04T06:12:57;101180.22;;;4.94;74.69
19624;BME280;9959;49.798;9.928;2023-02-04T06:15:24;101181.06;;;4.95;74.75
19624;BME280;9959;49.798;9.928;2023-02-04T06:17:51;101181.38;;;4.92;75.00
19624;BME280;9959;49.798;9.928;2023-02-04T06:20:19;101178.00;;;4.90;75.23
19624;BME280;9959;49.798;9.928;2023-02-04T06:22:46;101180.22;;;4.94;75.16
19624;BME280;9959;49.798;9.928;2023-02-04T06:25:17;101186.28;;;4.87;75.30
19624;BME280;9959;49.798;9.928;2023-02-04T06:27:44;101189.81;;;4.87;75.54
19624;BME280;9959;49.798;9.928;2023-02-04T06:30:11;101194.56;;;4.84;76.22
19624;BME280;9959;49.798;9.928;2023-02-04T06:32:38;101190.06;;;4.84;75.88
19624;BME280;9959;49.798;9.928;2023-02-04T06:35:06;101190.44;;;4.70;77.24
19624;BME280;9959;49.798;9.928;2023-02-04T06:37:32;101192.00;;;4.72;76.52
19624;BME280;9959;49.798;9.928;2023-02-04T06:39:59;101199.88;;;4.74;76.36
19624;BME280;9959;49.798;9.928;2023-02-04T06:42:26;101210.53;;;4.74;76.27
19624;BME280;9959;49.798;9.928;2023-02-04T06:44:53;101213.59;;;4.60;77.00
19624;BME280;9959;49.798;9.928;2023-02-04T06:47:19;101217.41;;;4.67;77.21
19624;BME280;9959;49.798;9.928;2023-02-04T06:49:46;101225.41;;;4.67;77.35
19624;BME280;9959;49.798;9.928;2023-02-04T06:52:13;101224.28;;;4.69;77.78
19624;BME280;9959;49.798;9.928;2023-02-04T06:54:40;101234.00;;;4.70;77.51
19624;BME280;9959;49.798;9.928;2023-02-04T06:57:06;101239.06;;;4.64;77.45
19624;BME280;9959;49.798;9.928;2023-02-04T06:59:35;101242.84;;;4.71;77.42
19624;BME280;9959;49.798;9.928;2023-02-04T07:02:04;101241.16;;;4.70;77.00
19624;BME280;9959;49.798;9.928;2023-02-04T07:04:31;101251.13;;;4.68;77.71
19624;BME280;9959;49.798;9.928;2023-02-04T07:07:02;101253.78;;;4.68;77.34
19624;BME280;9959;49.798;9.928;2023-02-04T07:09:29;101258.16;;;4.69;78.14
19624;BME280;9959;49.798;9.928;2023-02-04T07:11:55;101252.94;;;4.67;77.87
19624;BME280;9959;49.798;9.928;2023-02-04T07:14:23;101261.81;;;4.68;78.26
19624;BME280;9959;49.798;9.928;2023-02-04T07:16:50;101269.25;;;4.64;78.36
19624;BME280;9959;49.798;9.928;2023-02-04T07:19:17;101264.06;;;4.72;77.86
19624;BME280;9959;49.798;9.928;2023-02-04T07:21:46;101277.22;;;4.85;77.46
19624;BME280;9959;49.798;9.928;2023-02-04T07:24:13;101292.66;;;4.82;77.20
19624;BME280;9959;49.798;9.928;2023-02-04T07:26:40;101293.22;;;4.85;77.90
19624;BME280;9959;49.798;9.928;2023-02-04T07:29:08;101298.03;;;4.91;77.72
19624;BME280;9959;49.798;9.928;2023-02-04T07:31:46;101297.75;;;4.94;77.68
19624;BME280;9959;49.798;9.928;2023-02-04T07:34:13;101310.69;;;4.99;77.43
19624;BME280;9959;49.798;9.928;2023-02-04T07:39:07;101306.28;;;5.19;77.14
19624;BME280;9959;49.798;9.928;2023-02-04T07:41:34;101310.91;;;5.17;76.95
19624;BME280;9959;49.798;9.928;2023-02-04T07:44:05;101307.81;;;5.21;78.24
19624;BME280;9959;49.798;9.928;2023-02-04T07:46:32;101313.59;;;5.17;77.15
19624;BME280;9959;49.798;9.928;2023-02-04T07:48:59;101300.63;;;5.12;77.97
19624;BME280;9959;49.798;9.928;2023-02-04T07:51:26;101303.16;;;5.23;77.64
19624;BME280;9959;49.798;9.928;2023-02-04T07:53:54;101310.47;;;5.21;77.67
19624;BME280;9959;49.798;9.928;2023-02-04T07:56:22;101307.97;;;5.20;78.12
19624;BME280;9959;49.798;9.928;2023-02-04T07:58:48;101314.28;;;5.19;77.59
19624;BME280;9959;49.798;9.928;2023-02-04T08:01:15;101324.84;;;5.30;77.60
19624;BME280;9959;49.798;9.928;2023-02-04T08:03:43;101324.00;;;5.20;77.57
19624;BME280;9959;49.798;9.928;2023-02-04T08:06:10;101337.44;;;5.08;77.58
19624;BME280;9959;49.798;9.928;2023-02-04T08:08:37;101352.09;;;5.24;77.49
19624;BME280;9959;49.798;9.928;2023-02-04T08:11:04;101347.78;;;4.92;81.46
19624;BME280;9959;49.798;9.928;2023-02-04T08:13:31;101345.53;;;4.97;81.41
19624;BME280;9959;49.798;9.928;2023-02-04T08:15:58;101351.03;;;4.96;82.40
19624;BME280;9959;49.798;9.928;2023-02-04T08:18:25;101363.94;;;4.91;81.78
19624;BME280;9959;49.798;9.928;2023-02-04T08:20:52;101368.97;;;4.84;82.37
19624;BME280;9959;49.798;9.928;2023-02-04T08:23:19;101377.03;;;4.73;81.55
19624;BME280;9959;49.798;9.928;2023-02-04T08:25:46;101384.56;;;4.58;82.73
19624;BME280;9959;49.798;9.928;2023-02-04T08:28:13;101389.78;;;4.60;83.21
19624;BME280;9959;49.798;9.928;2023-02-04T08:30:40;101409.72;;;4.45;84.14
19624;BME280;9959;49.798;9.928;2023-02-04T08:33:05;101403.16;;;4.69;85.01
19624;BME280;9959;49.798;9.928;2023-02-04T08:35:32;101409.81;;;4.33;86.19
19624;BME280;9959;49.798;9.928;2023-02-04T08:37:59;101406.03;;;4.57;84.84
19624;BME280;9959;49.798;9.928;2023-02-04T08:40:26;101413.63;;;4.40;85.26
19624;BME280;9959;49.798;9.928;2023-02-04T08:42:53;101422.81;;;4.48;84.42
19624;BME280;9959;49.798;9.928;2023-02-04T08:45:19;101412.94;;;4.59;83.59
19624;BME280;9959;49.798;9.928;2023-02-04T08:47:46;101419.44;;;4.46;81.84
19624;BME280;9959;49.798;9.928;2023-02-04T08:50:13;101421.22;;;4.56;81.70
19624;BME280;9959;49.798;9.928;2023-02-04T08:52:43;101432.22;;;4.63;79.00
19624;BME280;9959;49.798;9.928;2023-02-04T08:55:10;101427.66;;;4.54;77.11
19624;BME280;9959;49.798;9.928;2023-02-04T08:57:37;101430.09;;;4.46;76.71
19624;BME280;9959;49.798;9.928;2023-02-04T09:00:04;101432.25;;;4.72;76.02
19624;BME280;9959;49.798;9.928;2023-02-04T09:02:31;101433.78;;;4.86;73.20
19624;BME280;9959;49.798;9.928;2023-02-04T09:04:58;101449.34;;;4.81;71.73
19624;BME280;9959;49.798;9.928;2023-02-04T09:07:26;101458.38;;;5.10;70.96
19624;BME280;9959;49.798;9.928;2023-02-04T09:09:52;101458.19;;;5.02;70.62
19624;BME280;9959;49.798;9.928;2023-02-04T09:12:19;101472.19;;;5.16;69.61
19624;BME280;9959;49.798;9.928;2023-02-04T09:14:46;101483.47;;;5.19;68.46
19624;BME280;9959;49.798;9.928;2023-02-04T09:17:13;101484.91;;;5.33;67.96
19624;BME280;9959;49.798;9.928;2023-02-04T09:19:40;101489.06;;;4.95;67.45
19624;BME280;9959;49.798;9.928;2023-02-04T09:22:08;101489.69;;;4.67;67.90
19624;BME280;9959;49.798;9.928;2023-02-04T09:24:35;101493.97;;;4.90;67.96
19624;BME280;9959;49.798;9.928;2023-02-04T09:27:01;101494.69;;;4.92;67.30
19624;BME280;9959;49.798;9.928;2023-02-04T09:29:28;101492.63;;;5.05;66.96
19624;BME280;9959;49.798;9.928;2023-02-04T09:32:04;101495.91;;;4.88;66.95
19624;BME280;9959;49.798;9.928;2023-02-04T09:34:31;101505.41;;;5.02;66.33
19624;BME280;9959;49.798;9.928;2023-02-04T09:36:58;101497.47;;;4.91;66.07
19624;BME280;9959;49.798;9.928;2023-02-04T09:39:28;101501.47;;;5.27;66.44
19624;BME280;9959;49.798;9.928;2023-02-04T09:41:58;101508.66;;;5.05;66.45
19624;BME280;9959;49.798;9.928;2023-02-04T09:44:27;101518.56;;;5.15;65.25
19624;BME280;9959;49.798;9.928;2023-02-04T09:46:59;101516.38;;;5.20;64.04
19624;BME280;9959;49.798;9.928;2023-02-04T09:49:26;101520.63;;;5.32;64.92
19624;BME280;9959;49.798;9.928;2023-02-04T09:51:54;101524.50;;;5.69;63.60
19624;BME280;9959;49.798;9.928;2023-02-04T09:54:22;101525.94;;;5.83;64.21
19624;BME280;9959;49.798;9.928;2023-02-04T09:56:51;101530.31;;;5.54;62.94
19624;BME280;9959;49.798;9.928;2023-02-04T09:59:22;101537.44;;;5.23;63.80
19624;BME280;9959;49.798;9.928;2023-02-04T10:02:23;101535.03;;;5.40;63.82
19624;BME280;9959;49.798;9.928;2023-02-04T10:04:51;101533.03;;;5.33;63.32
19624;BME280;9959;49.798;9.928;2023-02-04T10:07:20;101535.81;;;5.31;62.41
19624;BME280;9959;49.798;9.928;2023-02-04T10:09:51;101531.97;;;5.45;62.02
19624;BME280;9959;49.798;9.928;2023-02-04T10:12:20;101528.53;;;5.33;62.67
19624;BME280;9959;49.798;9.928;2023-02-04T10:14:48;101533.16;;;5.10;62.33
19624;BME280;9959;49.798;9.928;2023-02-04T10:17:24;101520.91;;;5.08;63.11
19624;BME280;9959;49.798;9.928;2023-02-04T10:19:51;101519.41;;;5.66;62.05
19624;BME280;9959;49.798;9.928;2023-02-04T10:22:19;101528.03;;;6.00;61.12
19624;BME280;9959;49.798;9.928;2023-02-04T10:24:49;101529.75;;;6.21;59.88
19624;BME280;9959;49.798;9.928;2023-02-04T10:27:17;101527.72;;;5.94;60.05
19624;BME280;9959;49.798;9.928;2023-02-04T10:29:58;101531.69;;;5.99;59.04
19624;BME280;9959;49.798;9.928;2023-02-04T10:32:28;101533.00;;;5.84;59.34
19624;BME280;9959;49.798;9.928;2023-02-04T10:34:57;101539.28;;;5.43;60.41
19624;BME280;9959;49.798;9.928;2023-02-04T10:37:25;101543.38;;;5.77;59.40
19624;BME280;9959;49.798;9.928;2023-02-04T10:39:52;101535.41;;;5.57;60.37
19624;BME280;9959;49.798;9.928;2023-02-04T10:42:25;101538.75;;;5.79;60.46
19624;BME280;9959;49.798;9.928;2023-02-04T10:44:52;101534.28;;;5.59;60.10
19624;BME280;9959;49.798;9.928;2023-02-04T10:47:24;101535.84;;;5.62;61.11
19624;BME280;9959;49.798;9.928;2023-02-04T10:52:39;101539.13;;;5.65;59.87
19624;BME280;9959;49.798;9.928;2023-02-04T10:55:18;101544.28;;;5.57;60.47
19624;BME280;9959;49.798;9.928;2023-02-04T10:57:47;101541.69;;;5.76;60.04
19624;BME280;9959;49.798;9.928;2023-02-04T11:00:19;101552.66;;;5.73;60.64
19624;BME280;9959;49.798;9.928;2023-02-04T11:02:58;101541.97;;;5.73;59.94
19624;BME280;9959;49.798;9.928;2023-02-04T11:05:30;101547.31;;;5.43;60.94
19624;BME280;9959;49.798;9.928;2023-02-04T11:07:58;101547.19;;;5.54;61.26
19624;BME280;9959;49.798;9.928;2023-02-04T11:10:30;101555.41;;;5.62;61.33
19624;BME280;9959;49.798;9.928;2023-02-04T11:12:59;101554.72;;;5.91;60.75
19624;BME280;9959;49.798;9.928;2023-02-04T11:18:12;101570.25;;;5.46;61.33
19624;BME280;9959;49.798;9.928;2023-02-04T11:20:39;101565.47;;;5.49;61.05
19624;BME280;9959;49.798;9.928;2023-02-04T11:23:33;101557.19;;;5.83;60.20
19624;BME280;9959;49.798;9.928;2023-02-04T11:31:37;101560.09;;;5.91;60.21
19624;BME280;9959;49.798;9.928;2023-02-04T11:42:03;101566.47;;;5.99;59.00
19624;BME280;9959;49.798;9.928;2023-02-04T11:44:34;101562.63;;;5.92;59.35
19624;BME280;9959;49.798;9.928;2023-02-04T11:47:01;101567.63;;;5.86;59.82
19624;BME280;9959;49.798;9.928;2023-02-04T11:49:35;101572.88;;;5.66;60.09
19624;BME280;9959;49.798;9.928;2023-02-04T11:52:05;101566.31;;;5.80;60.35
19624;BME280;9959;49.798;9.928;2023-02-04T11:54:34;101574.31;;;5.50;60.66
19624;BME280;9959;49.798;9.928;2023-02-04T11:57:02;101573.22;;;5.52;61.98
19624;BME280;9959;49.798;9.928;2023-02-04T11:59:29;101573.22;;;5.73;61.47
19624;BME280;9959;49.798;9.928;2023-02-04T12:02:23;101571.69;;;6.01;61.00
19624;BME280;9959;49.798;9.928;2023-02-04T12:05:07;101565.75;;;6.07;60.86
19624;BME280;9959;49.798;9.928;2023-02-04T12:07:34;101566.81;;;5.64;62.02
19624;BME280;9959;49.798;9.928;2023-02-04T12:10:25;101575.28;;;5.90;61.17
19624;BME280;9959;49.798;9.928;2023-02-04T12:12:54;101569.50;;;6.25;59.97
19624;BME280;9959;49.798;9.928;2023-02-04T12:15:31;101570.75;;;6.31;60.43
19624;BME280;9959;49.798;9.928;2023-02-04T12:18:04;101581.72;;;6.18;59.46
19624;BME280;9959;49.798;9.928;2023-02-04T12:20:33;101574.31;;;5.70;61.21
19624;BME280;9959;49.798;9.928;2023-02-04T12:23:00;101577.59;;;5.84;60.51
19624;BME280;9959;49.798;9.928;2023-02-04T12:25:27;101583.75;;;5.95;60.09
19624;BME280;9959;49.798;9.928;2023-02-04T12:27:54;101580.09;;;5.96;59.88
19624;BME280;9959;49.798;9.928;2023-02-04T12:30:23;101578.38;;;6.35;59.25
19624;BME280;9959;49.798;9.928;2023-02-04T12:32:51;101579.09;;;6.37;59.17
19624;BME280;9959;49.798;9.928;2023-02-04T12:35:19;101572.94;;;6.47;60.31
19624;BME280;9959;49.798;9.928;2023-02-04T12:37:46;101575.50;;;6.87;57.70
19624;BME280;9959;49.798;9.928;2023-02-04T12:40:18;101578.25;;;6.37;58.47
19624;BME280;9959;49.798;9.928;2023-02-04T12:42:45;101577.59;;;8.70;52.88
19624;BME280;9959;49.798;9.928;2023-02-04T12:45:13;101577.34;;;7.71;53.83
19624;BME280;9959;49.798;9.928;2023-02-04T12:47:42;101588.72;;;6.69;56.98
19624;BME280;9959;49.798;9.928;2023-02-04T12:50:17;101578.66;;;8.59;52.51
19624;BME280;9959;49.798;9.928;2023-02-04T12:52:52;101577.47;;;8.17;52.69
19624;BME280;9959;49.798;9.928;2023-02-04T12:55:21;101575.97;;;7.95;53.94
19624;BME280;9959;49.798;9.928;2023-02-04T12:57:50;101569.13;;;7.82;53.29
19624;BME280;9959;49.798;9.928;2023-02-04T13:00:18;101573.50;;;7.18;54.86
19624;BME280;9959;49.798;9.928;2023-02-04T13:02:45;101572.09;;;7.23;54.59
19624;BME280;9959;49.798;9.928;2023-02-04T13:05:12;101567.31;;;6.78;55.96
19624;BME280;9959;49.798;9.928;2023-02-04T13:07:39;101579.16;;;6.95;55.95
19624;BME280;9959;49.798;9.928;2023-02-04T13:10:08;101581.97;;;6.84;55.71
19624;BME280;9959;49.798;9.928;2023-02-04T13:12:35;101578.59;;;6.72;56.93
19624;BME280;9959;49.798;9.928;2023-02-04T13:15:03;101577.59;;;6.73;56.37
19624;BME280;9959;49.798;9.928;2023-02-04T13:17:30;101577.75;;;6.82;57.09
19624;BME280;9959;49.798;9.928;2023-02-04T13:19:57;101574.66;;;6.76;57.59
19624;BME280;9959;49.798;9.928;2023-02-04T13:22:24;101581.31;;;6.32;57.85
19624;BME280;9959;49.798;9.928;2023-02-04T13:24:51;101579.56;;;6.52;57.63
19624;BME280;9959;49.798;9.928;2023-02-04T13:27:17;101574.91;;;7.22;56.72
19624;BME280;9959;49.798;9.928;2023-02-04T13:29:44;101568.59;;;7.69;55.05
19624;BME280;9959;49.798;9.928;2023-02-04T13:32:11;101570.28;;;7.04;55.80
19624;BME280;9959;49.798;9.928;2023-02-04T13:34:38;101576.72;;;9.05;50.03
19624;BME280;9959;49.798;9.928;2023-02-04T13:37:05;101568.88;;;8.40;52.29
19624;BME280;9959;49.798;9.928;2023-02-04T13:39:31;101565.75;;;7.34;54.06
19624;BME280;9959;49.798;9.928;2023-02-04T13:41:58;101576.78;;;6.83;54.89
19624;BME280;9959;49.798;9.928;2023-02-04T13:44:25;101579.88;;;7.07;54.99
19624;BME280;9959;49.798;9.928;2023-02-04T13:46:52;101584.78;;;7.11;54.72